KSGR

Sugar Land Regional Airport

Houston, Texas, USA
KSGR 210901Z 2109/2206 11007KT P6SM BKN015 FM211100 11009KT P6SM SCT008 BKN015 OVC025 FM211600 12011KT P6SM SCT015 BKN025 BKN060 FM212200 13009KT P6SM VCTS BKN025CB BKN040 PROB30 2200/2206 TSRA BKN015CB
Issued Valid From Valid To
Apr-21 @ 09:01 UTC
(40 minutes ago)
Apr-21 @ 09:00 UTC
(41 minutes ago)
Apr-22 @ 06:00 UTC
(in 20 hours)
Apr-21 @ 09:00 to Apr-21 @ 11:00
KSGR 210901Z 2109/2206 11007KT P6SM BKN015
Wind Visibility Clouds
110° at 7 knots Greater than 6 miles
  • Broken at 1,500' AGL
From Apr-21 @ 11:00 to Apr-21 @ 16:00
FM211100 11009KT P6SM SCT008 BKN015 OVC025
Wind Visibility Clouds
110° at 9 knots Greater than 6 miles
  • Scattered at 800' AGL
  • Broken at 1,500' AGL
  • Overcast at 2,500' AGL
From Apr-21 @ 16:00 to Apr-21 @ 22:00
FM211600 12011KT P6SM SCT015 BKN025 BKN060
Wind Visibility Clouds
120° at 11 knots Greater than 6 miles
  • Scattered at 1,500' AGL
  • Broken at 2,500' AGL
  • Broken at 6,000' AGL
From Apr-21 @ 22:00 to Apr-22 @ 06:00
FM212200 13009KT P6SM VCTS BKN025CB BKN040
Wind Visibility Clouds Conditions
130° at 9 knots Greater than 6 miles
  • Broken at 2,500' AGL
  • Broken at 4,000' AGL
  • Area Thunderstorm
Probable  (Probability 30%) Apr-22 @ 00:00 to Apr-22 @ 06:00
PROB30 2200/2206 TSRA BKN015CB
Clouds Conditions
  • Broken at 1,500' AGL
  • Thunderstorm
  • Rain
KSGR 210901Z 2109/2206 11007KT P6SM BKN015 FM211100 11009KT P6SM SCT008 BKN015 OVC025 FM211600 12011KT P6SM SCT015 BKN025 BKN060 FM212200 13009KT P6SM VCTS BKN025CB BKN040 PROB30 2200/2206 TSRA BKN015CB
Issued Apr-21 @ 09:01 UTC
(40 minutes ago)
Valid From Apr-21 @ 09:00 UTC
(41 minutes ago)
Valid To Apr-22 @ 06:00 UTC
(in 20 hours)
Apr-21 @ 09:00 - Apr-21 @ 11:00
Wind Visibility
110° at 7 knots Greater than 6 miles
Clouds
  • Broken at 1,500' AGL
From Apr-21 @ 11:00 - Apr-21 @ 16:00
Wind Visibility
110° at 9 knots Greater than 6 miles
Clouds
  • Scattered at 800' AGL
  • Broken at 1,500' AGL
  • Overcast at 2,500' AGL
From Apr-21 @ 16:00 - Apr-21 @ 22:00
Wind Visibility
120° at 11 knots Greater than 6 miles
Clouds
  • Scattered at 1,500' AGL
  • Broken at 2,500' AGL
  • Broken at 6,000' AGL
From Apr-21 @ 22:00 - Apr-22 @ 06:00
Wind Visibility
130° at 9 knots Greater than 6 miles
Clouds
  • Broken at 2,500' AGL
  • Broken at 4,000' AGL
Conditions
  • Area Thunderstorm
Probability 30% Probable Apr-22 @ 00:00 - Apr-22 @ 06:00
Clouds
  • Broken at 1,500' AGL
Conditions
  • Thunderstorm
  • Rain